createdAt,value
2018-07-16T00:00:03.318Z,5.53
2018-07-16T00:02:30.757Z,7.03
2018-07-16T00:04:58.222Z,4.92
2018-07-16T00:07:25.627Z,5.53
2018-07-16T00:09:53.154Z,5.67
2018-07-16T00:12:20.665Z,6.22
2018-07-16T00:14:48.195Z,6.33
2018-07-16T00:17:15.683Z,5.75
2018-07-16T00:19:43.308Z,5.85
2018-07-16T00:22:10.800Z,5.20
2018-07-16T00:24:38.553Z,8.00
2018-07-16T00:27:06.106Z,4.62
2018-07-16T00:29:33.935Z,4.65
2018-07-16T00:32:01.352Z,6.03
2018-07-16T00:34:28.913Z,6.47
2018-07-16T00:36:56.326Z,4.83
2018-07-16T00:39:23.770Z,8.68
2018-07-16T00:41:51.212Z,4.92
2018-07-16T00:44:18.667Z,5.30
2018-07-16T00:46:46.074Z,5.12
2018-07-16T00:49:13.497Z,5.28
2018-07-16T00:51:40.918Z,6.28
2018-07-16T00:54:08.400Z,5.67
2018-07-16T00:56:35.981Z,5.40
2018-07-16T00:59:03.378Z,5.78
2018-07-16T01:01:30.839Z,6.12
2018-07-16T01:03:58.366Z,6.20
2018-07-16T01:06:26.283Z,7.03
2018-07-16T01:08:53.719Z,5.78
2018-07-16T01:11:21.133Z,7.10
2018-07-16T01:13:48.750Z,6.80
2018-07-16T01:16:16.614Z,6.70
2018-07-16T01:18:44.508Z,8.48
2018-07-16T01:21:12.397Z,7.33
2018-07-16T01:23:40.604Z,5.78
2018-07-16T01:26:08.567Z,7.62
2018-07-16T01:28:36.356Z,8.08
2018-07-16T01:31:04.260Z,9.90
2018-07-16T01:33:31.679Z,8.35
2018-07-16T01:35:59.128Z,6.92
2018-07-16T01:38:26.546Z,7.60
2018-07-16T01:40:53.985Z,7.03
2018-07-16T01:43:21.394Z,8.58
2018-07-16T01:45:48.849Z,6.67
2018-07-16T01:48:16.279Z,7.40
2018-07-16T01:50:43.703Z,8.20
2018-07-16T01:53:11.130Z,7.10
2018-07-16T01:55:38.525Z,6.97
2018-07-16T01:58:05.954Z,6.95
2018-07-16T02:00:35.098Z,8.40
2018-07-16T02:03:02.560Z,9.43
2018-07-16T02:05:29.998Z,7.28
2018-07-16T02:07:57.426Z,7.92
2018-07-16T02:10:24.835Z,7.20
2018-07-16T02:12:52.286Z,9.38
2018-07-16T02:15:19.751Z,6.33
2018-07-16T02:17:47.189Z,6.03
2018-07-16T02:20:14.731Z,4.62
2018-07-16T02:22:42.166Z,5.90
2018-07-16T02:25:09.622Z,5.15
2018-07-16T02:27:37.043Z,6.67
2018-07-16T02:30:04.494Z,4.58
2018-07-16T02:32:31.919Z,4.37
2018-07-16T02:34:59.330Z,3.67
2018-07-16T02:37:26.781Z,3.77
2018-07-16T02:39:54.205Z,4.37
2018-07-16T02:42:21.659Z,4.20
2018-07-16T02:44:49.095Z,4.40
2018-07-16T02:47:19.274Z,3.65
2018-07-16T02:49:46.682Z,4.22
2018-07-16T02:52:14.168Z,3.62
2018-07-16T02:54:41.623Z,4.08
2018-07-16T02:57:09.066Z,4.65
2018-07-16T02:59:36.558Z,5.85
2018-07-16T03:02:04.023Z,4.53
2018-07-16T03:04:31.465Z,4.15
2018-07-16T03:06:58.887Z,4.42
2018-07-16T03:09:26.299Z,4.80
2018-07-16T03:11:53.753Z,4.28
2018-07-16T03:14:21.188Z,4.40
2018-07-16T03:16:48.614Z,4.60
2018-07-16T03:19:16.213Z,4.28
2018-07-16T03:21:43.630Z,4.92
2018-07-16T03:24:11.086Z,5.67
2018-07-16T03:26:38.484Z,9.63
2018-07-16T03:29:05.979Z,7.15
2018-07-16T03:31:33.402Z,5.87
2018-07-16T03:34:00.857Z,5.75
2018-07-16T03:36:28.290Z,6.60
2018-07-16T03:38:55.791Z,5.72
2018-07-16T03:41:23.230Z,6.00
2018-07-16T03:43:50.787Z,6.53
2018-07-16T03:46:18.258Z,5.50
2018-07-16T03:48:45.677Z,5.47
2018-07-16T03:51:13.091Z,5.47
2018-07-16T03:53:40.585Z,5.72
2018-07-16T03:56:08.027Z,5.05
2018-07-16T03:58:35.439Z,4.90
2018-07-16T04:01:02.914Z,4.70
2018-07-16T04:03:30.609Z,7.12
2018-07-16T04:05:58.035Z,6.55
2018-07-16T04:08:25.488Z,6.55
2018-07-16T04:10:52.898Z,5.95
2018-07-16T04:13:20.329Z,5.05
2018-07-16T04:15:47.830Z,5.92
2018-07-16T04:18:18.152Z,5.17
2018-07-16T04:20:45.594Z,8.23
2018-07-16T04:23:13.147Z,6.00
2018-07-16T04:25:40.678Z,7.00
2018-07-16T04:28:08.385Z,6.45
2018-07-16T04:30:35.810Z,5.37
2018-07-16T04:33:03.439Z,5.28
2018-07-16T04:35:30.912Z,5.90
2018-07-16T04:37:58.330Z,9.08
2018-07-16T04:40:25.806Z,6.12
2018-07-16T04:42:53.295Z,7.20
2018-07-16T04:45:20.874Z,6.62
2018-07-16T04:47:48.286Z,6.08
2018-07-16T04:50:15.687Z,6.70
2018-07-16T04:52:43.138Z,5.53
2018-07-16T04:55:10.554Z,6.45
2018-07-16T04:57:37.969Z,6.50
2018-07-16T05:00:05.471Z,6.42
2018-07-16T05:02:33.823Z,6.28
2018-07-16T05:05:01.250Z,6.47
2018-07-16T05:07:28.648Z,6.95
2018-07-16T05:09:56.085Z,7.35
2018-07-16T05:12:23.502Z,7.37
2018-07-16T05:14:50.923Z,7.35
2018-07-16T05:17:18.356Z,7.28
2018-07-16T05:19:45.779Z,7.33
2018-07-16T05:22:13.319Z,7.42
2018-07-16T05:24:40.798Z,8.45
2018-07-16T05:27:08.239Z,10.60
2018-07-16T05:29:35.662Z,7.67
2018-07-16T05:32:03.277Z,7.03
2018-07-16T05:34:30.751Z,10.82
2018-07-16T05:36:58.154Z,9.73
2018-07-16T05:39:25.588Z,9.05
2018-07-16T05:41:52.991Z,9.60
2018-07-16T05:44:20.778Z,11.45
2018-07-16T05:46:48.275Z,10.43
2018-07-16T05:49:15.870Z,12.80
2018-07-16T05:51:43.302Z,10.68
2018-07-16T05:54:10.706Z,12.98
2018-07-16T05:56:38.180Z,15.15
2018-07-16T05:59:06.103Z,12.47
2018-07-16T06:01:33.511Z,13.50
2018-07-16T06:04:00.930Z,12.47
2018-07-16T06:06:28.354Z,12.73
2018-07-16T06:08:55.783Z,11.28
2018-07-16T06:11:23.565Z,11.60
2018-07-16T06:13:50.992Z,12.47
2018-07-16T06:16:18.475Z,12.47
2018-07-16T06:18:46.047Z,13.32
2018-07-16T06:21:13.467Z,13.85
2018-07-16T06:23:40.887Z,16.35
2018-07-16T06:26:08.283Z,13.35
2018-07-16T06:28:35.727Z,12.82
2018-07-16T06:31:03.182Z,11.30
2018-07-16T06:33:30.630Z,15.43
2018-07-16T06:35:58.036Z,11.73
2018-07-16T06:38:25.506Z,14.60
2018-07-16T06:40:53.859Z,11.65
2018-07-16T06:43:21.095Z,12.78
2018-07-16T06:45:48.665Z,12.70
2018-07-16T06:48:17.457Z,11.53
2018-07-16T06:50:44.927Z,13.60
2018-07-16T06:53:12.358Z,14.53
2018-07-16T06:55:39.770Z,12.73
2018-07-16T06:58:07.220Z,12.00
2018-07-16T07:00:34.662Z,14.38
2018-07-16T07:03:02.060Z,14.05
2018-07-16T07:05:29.498Z,14.78
2018-07-16T07:07:56.918Z,14.43
2018-07-16T07:10:24.414Z,11.48
2018-07-16T07:12:51.862Z,13.65
2018-07-16T07:15:19.563Z,15.20
2018-07-16T07:17:46.975Z,13.18
2018-07-16T07:20:14.532Z,12.80
2018-07-16T07:22:41.975Z,12.98
2018-07-16T07:25:09.471Z,14.78
2018-07-16T07:27:37.200Z,12.43
2018-07-16T07:30:04.690Z,13.43
2018-07-16T07:32:32.095Z,11.93
2018-07-16T07:34:59.606Z,13.93
2018-07-16T07:37:26.994Z,15.30
2018-07-16T07:39:54.522Z,14.05
2018-07-16T07:42:21.971Z,15.50
2018-07-16T07:44:49.570Z,12.82
2018-07-16T07:47:17.226Z,13.43
2018-07-16T07:49:44.711Z,14.60
2018-07-16T07:52:12.550Z,12.80
2018-07-16T07:54:40.137Z,13.60
2018-07-16T07:57:07.468Z,11.90
2018-07-16T07:59:35.834Z,11.83
2018-07-16T08:02:03.291Z,12.85
2018-07-16T08:04:30.766Z,13.30
2018-07-16T08:07:04.142Z,11.35
2018-07-16T08:09:31.776Z,11.38
2018-07-16T08:11:59.904Z,12.05
2018-07-16T08:14:27.405Z,9.05
2018-07-16T08:16:55.535Z,8.35
2018-07-16T08:19:23.022Z,8.50
2018-07-16T08:21:50.470Z,10.43
2018-07-16T08:24:17.889Z,9.43
2018-07-16T08:26:45.448Z,9.53
2018-07-16T08:29:12.907Z,7.60
2018-07-16T08:31:40.406Z,7.15
2018-07-16T08:34:08.158Z,9.80
2018-07-16T08:36:37.658Z,7.75
2018-07-16T08:39:05.985Z,7.58
2018-07-16T08:41:33.838Z,6.35
2018-07-16T08:44:01.418Z,5.60
2018-07-16T08:46:28.895Z,6.08
2018-07-16T08:48:56.333Z,4.75
2018-07-16T08:51:23.746Z,4.70
2018-07-16T08:53:51.274Z,3.40
2018-07-16T08:56:18.734Z,4.17
2018-07-16T08:58:46.240Z,3.87
2018-07-16T09:01:13.698Z,5.10
2018-07-16T09:03:41.195Z,3.33
2018-07-16T09:06:09.577Z,4.35
2018-07-16T09:08:37.016Z,3.62
2018-07-16T09:11:04.730Z,3.27
2018-07-16T09:13:32.494Z,3.37
2018-07-16T09:15:59.899Z,4.58
2018-07-16T09:18:27.573Z,4.25
2018-07-16T09:20:55.065Z,4.12
2018-07-16T09:23:22.635Z,3.08
2018-07-16T09:25:50.613Z,3.42
2018-07-16T09:28:18.048Z,2.98
2018-07-16T09:30:45.809Z,2.72
2018-07-16T09:33:13.262Z,2.95
2018-07-16T09:35:40.772Z,2.52
2018-07-16T09:38:08.247Z,3.50
2018-07-16T09:40:36.286Z,2.72
2018-07-16T09:43:03.758Z,4.12
2018-07-16T09:45:31.527Z,2.20
2018-07-16T09:47:59.015Z,2.33
2018-07-16T09:50:27.005Z,2.00
2018-07-16T09:52:55.565Z,1.72
2018-07-16T09:55:23.199Z,1.85
2018-07-16T09:57:50.976Z,1.95
2018-07-16T10:00:23.295Z,3.77
2018-07-16T10:02:50.850Z,1.80
2018-07-16T10:05:18.714Z,1.72
2018-07-16T10:07:46.187Z,3.52
2018-07-16T10:10:15.465Z,2.60
2018-07-16T10:12:43.235Z,2.00
2018-07-16T10:15:12.772Z,2.58
2018-07-16T10:17:40.705Z,2.27
2018-07-16T10:20:08.377Z,1.77
2018-07-16T10:22:35.799Z,2.33
2018-07-16T10:25:03.834Z,2.95
2018-07-16T10:27:31.297Z,1.20
2018-07-16T10:29:59.010Z,1.95
2018-07-16T10:32:26.434Z,1.35
2018-07-16T10:34:53.996Z,1.65
2018-07-16T10:37:21.447Z,1.20
2018-07-16T10:39:48.879Z,1.20
2018-07-16T10:42:16.326Z,2.75
2018-07-16T10:44:43.881Z,1.92
2018-07-16T10:47:11.310Z,1.25
2018-07-16T10:49:40.075Z,1.60
2018-07-16T10:52:07.506Z,1.55
2018-07-16T10:54:34.909Z,1.22
2018-07-16T10:57:02.363Z,1.32
2018-07-16T10:59:29.792Z,1.17
2018-07-16T11:01:57.583Z,1.60
2018-07-16T11:04:24.966Z,1.40
2018-07-16T11:06:52.734Z,1.40
2018-07-16T11:09:21.282Z,1.47
2018-07-16T11:11:48.710Z,1.27
2018-07-16T11:14:16.177Z,5.20
2018-07-16T11:16:43.576Z,2.40
2018-07-16T11:19:11.045Z,1.52
2018-07-16T11:21:38.506Z,1.72
2018-07-16T11:24:06.102Z,2.00
2018-07-16T11:26:33.529Z,1.50
2018-07-16T11:29:01.074Z,1.45
2018-07-16T11:31:28.493Z,1.95
2018-07-16T11:33:55.922Z,1.47
2018-07-16T11:36:23.363Z,1.40
2018-07-16T11:38:50.912Z,1.07
2018-07-16T11:41:18.331Z,1.30
2018-07-16T11:43:45.768Z,1.70
2018-07-16T11:46:13.284Z,1.47
2018-07-16T11:48:40.646Z,1.70
2018-07-16T11:51:08.092Z,1.30
2018-07-16T11:53:35.588Z,1.67
2018-07-16T11:56:03.046Z,1.60
2018-07-16T11:58:30.526Z,1.05
2018-07-16T12:00:57.958Z,3.37
2018-07-16T12:03:25.452Z,1.32
2018-07-16T12:05:52.814Z,0.95
2018-07-16T12:08:20.279Z,1.10
2018-07-16T12:10:47.694Z,1.05
2018-07-16T12:13:15.512Z,0.90
2018-07-16T12:15:42.987Z,1.05
2018-07-16T12:18:11.620Z,1.00
2018-07-16T12:20:39.111Z,0.82
2018-07-16T12:23:06.584Z,0.93
2018-07-16T12:25:33.989Z,0.90
2018-07-16T12:28:01.462Z,1.70
2018-07-16T12:30:29.050Z,0.78
2018-07-16T12:32:56.641Z,3.95
2018-07-16T12:35:23.979Z,0.80
2018-07-16T12:37:51.420Z,0.80
2018-07-16T12:40:18.874Z,0.68
2018-07-16T12:42:46.290Z,1.72
2018-07-16T12:45:13.729Z,0.90
2018-07-16T12:47:41.272Z,1.32
2018-07-16T12:50:08.716Z,0.98
2018-07-16T12:52:36.202Z,0.82
2018-07-16T12:55:03.626Z,0.70
2018-07-16T12:57:31.186Z,1.37
2018-07-16T12:59:58.641Z,1.17
2018-07-16T13:02:26.102Z,0.95
2018-07-16T13:04:53.656Z,0.80
2018-07-16T13:07:21.621Z,1.15
2018-07-16T13:09:49.326Z,0.70
2018-07-16T13:12:17.633Z,1.05
2018-07-16T13:14:45.433Z,1.47
2018-07-16T13:17:12.902Z,1.10
2018-07-16T13:19:40.381Z,0.88
2018-07-16T13:22:07.814Z,2.72
2018-07-16T13:24:35.258Z,1.17
2018-07-16T13:27:02.671Z,1.17
2018-07-16T13:29:30.844Z,0.93
2018-07-16T13:31:58.342Z,0.95
2018-07-16T13:34:25.890Z,1.10
2018-07-16T13:36:53.609Z,0.95
2018-07-16T13:39:22.003Z,1.52
2018-07-16T13:41:50.271Z,12.35
2018-07-16T13:44:17.718Z,2.27
2018-07-16T13:46:45.532Z,1.80
2018-07-16T13:49:12.939Z,1.22
2018-07-16T13:51:40.921Z,1.70
2018-07-16T13:54:09.164Z,1.30
2018-07-16T13:56:36.622Z,3.80
2018-07-16T13:59:04.192Z,2.30
2018-07-16T14:01:31.974Z,2.50
2018-07-16T14:03:59.467Z,1.20
2018-07-16T14:06:26.865Z,1.20
2018-07-16T14:08:54.365Z,1.20
2018-07-16T14:11:21.844Z,1.37
2018-07-16T14:13:49.396Z,1.10
2018-07-16T14:16:16.810Z,1.00
2018-07-16T14:18:44.293Z,1.42
2018-07-16T14:21:11.710Z,0.93
2018-07-16T14:23:39.138Z,2.85
2018-07-16T14:26:06.570Z,0.70
2018-07-16T14:28:33.993Z,0.98
2018-07-16T14:31:01.516Z,0.80
2018-07-16T14:33:29.002Z,1.00
2018-07-16T14:35:56.450Z,1.07
2018-07-16T14:38:23.939Z,0.88
2018-07-16T14:40:51.370Z,1.95
2018-07-16T14:43:18.829Z,1.62
2018-07-16T14:45:46.374Z,1.32
2018-07-16T14:48:19.217Z,1.47
2018-07-16T14:50:46.754Z,1.62
2018-07-16T14:53:14.211Z,1.00
2018-07-16T14:55:42.878Z,2.25
2018-07-16T14:58:11.059Z,1.50
2018-07-16T15:00:38.736Z,4.22
2018-07-16T15:03:07.103Z,1.32
2018-07-16T15:05:35.068Z,1.77
2018-07-16T15:08:04.069Z,1.37
2018-07-16T15:10:31.892Z,1.57
2018-07-16T15:13:00.043Z,4.35
2018-07-16T15:15:29.841Z,3.08
2018-07-16T15:17:57.902Z,2.65
2018-07-16T15:20:25.503Z,3.22
2018-07-16T15:22:52.826Z,2.45
2018-07-16T15:25:20.252Z,1.62
2018-07-16T15:27:48.198Z,1.87
2018-07-16T15:30:16.057Z,2.20
2018-07-16T15:32:43.533Z,2.00
2018-07-16T15:35:10.954Z,1.85
2018-07-16T15:37:38.399Z,2.92
2018-07-16T15:40:05.867Z,1.25
2018-07-16T15:42:33.442Z,1.65
2018-07-16T15:45:00.869Z,2.02
2018-07-16T15:47:28.289Z,1.70
2018-07-16T15:49:55.817Z,1.37
2018-07-16T15:52:23.308Z,3.17
2018-07-16T15:54:50.772Z,2.12
2018-07-16T15:57:18.188Z,6.50
2018-07-16T15:59:45.630Z,2.42
2018-07-16T16:02:13.143Z,3.40
2018-07-16T16:04:40.614Z,2.45
2018-07-16T16:07:08.239Z,2.33
2018-07-16T16:09:37.527Z,5.47
2018-07-16T16:12:05.652Z,5.17
2018-07-16T16:14:33.724Z,3.15
2018-07-16T16:17:04.596Z,2.05
2018-07-16T16:19:32.903Z,1.47
2018-07-16T16:22:01.972Z,2.42
2018-07-16T16:24:30.364Z,2.85
2018-07-16T16:26:57.807Z,2.02
2018-07-16T16:29:25.267Z,42.80
2018-07-16T16:31:53.355Z,17.30
2018-07-16T16:34:20.801Z,3.85
2018-07-16T16:36:48.516Z,1.95
2018-07-16T16:39:16.038Z,3.02
2018-07-16T16:41:43.620Z,1.57
2018-07-16T16:44:11.132Z,1.67
2018-07-16T16:46:38.695Z,1.52
2018-07-16T16:49:06.354Z,1.75
2018-07-16T16:51:33.850Z,1.85
2018-07-16T16:54:01.390Z,3.12
2018-07-16T16:56:28.924Z,1.95
2018-07-16T16:58:57.438Z,1.70
2018-07-16T17:01:24.990Z,2.22
2018-07-16T17:03:52.664Z,1.55
2018-07-16T17:06:20.562Z,1.22
2018-07-16T17:08:48.200Z,2.85
2018-07-16T17:11:15.994Z,7.70
2018-07-16T17:13:43.506Z,2.10
2018-07-16T17:16:11.023Z,2.50
2018-07-16T17:18:38.434Z,2.20
2018-07-16T17:21:05.975Z,1.45
2018-07-16T17:23:33.419Z,3.08
2018-07-16T17:26:00.883Z,3.52
2018-07-16T17:28:28.336Z,1.40
2018-07-16T17:30:56.788Z,1.80
2018-07-16T17:33:25.519Z,2.33
2018-07-16T17:35:53.273Z,1.92
2018-07-16T17:38:20.808Z,4.87
2018-07-16T17:40:48.286Z,2.52
2018-07-16T17:43:15.734Z,2.25
2018-07-16T17:45:43.285Z,2.08
2018-07-16T17:48:10.649Z,1.20
2018-07-16T17:50:38.095Z,1.90
2018-07-16T17:53:05.545Z,1.72
2018-07-16T17:55:33.017Z,1.77
2018-07-16T17:58:00.427Z,2.10
2018-07-16T18:00:28.026Z,7.12
2018-07-16T18:02:55.442Z,2.02
2018-07-16T18:05:22.892Z,2.50
2018-07-16T18:07:50.302Z,4.15
2018-07-16T18:10:17.707Z,2.20
2018-07-16T18:12:45.140Z,6.83
2018-07-16T18:15:12.612Z,2.30
2018-07-16T18:17:40.067Z,4.67
2018-07-16T18:20:07.562Z,2.05
2018-07-16T18:22:34.973Z,2.12
2018-07-16T18:25:02.549Z,1.87
2018-07-16T18:27:30.132Z,2.22
2018-07-16T18:29:57.685Z,1.60
2018-07-16T18:32:25.135Z,1.70
2018-07-16T18:34:53.567Z,1.65
2018-07-16T18:37:21.017Z,5.25
2018-07-16T18:39:48.498Z,2.42
2018-07-16T18:42:16.453Z,1.67
2018-07-16T18:44:44.006Z,5.37
2018-07-16T18:47:11.549Z,4.17
2018-07-16T18:49:39.149Z,5.05
2018-07-16T18:52:06.749Z,2.40
2018-07-16T18:54:35.334Z,2.25
2018-07-16T18:57:02.852Z,2.70
2018-07-16T18:59:30.579Z,2.20
2018-07-16T19:01:58.037Z,2.40
2018-07-16T19:04:25.721Z,2.42
2018-07-16T19:06:53.375Z,2.10
2018-07-16T19:09:21.342Z,3.58
2018-07-16T19:11:48.779Z,3.55
2018-07-16T19:14:16.200Z,2.15
2018-07-16T19:16:44.439Z,2.08
2018-07-16T19:19:12.224Z,2.27
2018-07-16T19:21:40.379Z,2.98
2018-07-16T19:24:08.286Z,2.00
2018-07-16T19:26:36.168Z,2.42
2018-07-16T19:29:04.334Z,5.80
2018-07-16T19:31:31.850Z,3.22
2018-07-16T19:33:59.350Z,4.97
2018-07-16T19:36:27.511Z,2.47
2018-07-16T19:38:55.880Z,7.00
2018-07-16T19:41:23.334Z,3.40
2018-07-16T19:43:50.749Z,2.15
2018-07-16T19:46:18.796Z,2.90
2018-07-16T19:48:46.652Z,4.87
2018-07-16T19:51:14.142Z,3.12
2018-07-16T19:53:42.205Z,5.72
2018-07-16T19:56:10.294Z,4.33
2018-07-16T19:58:37.715Z,4.75
2018-07-16T20:01:05.160Z,2.30
2018-07-16T20:03:33.344Z,2.70
2018-07-16T20:06:01.100Z,4.08
2018-07-16T20:08:28.602Z,4.47
2018-07-16T20:10:56.156Z,9.93
2018-07-16T20:13:24.232Z,2.80
2018-07-16T20:15:51.711Z,3.52
2018-07-16T20:18:19.150Z,6.30
2018-07-16T20:20:56.977Z,2.17
2018-07-16T20:23:24.603Z,2.85
2018-07-16T20:25:54.259Z,2.98
2018-07-16T20:28:21.684Z,2.87
2018-07-16T20:30:49.287Z,3.90
2018-07-16T20:33:17.809Z,2.47
2018-07-16T20:35:45.663Z,2.50
2018-07-16T20:38:13.189Z,3.10
2018-07-16T20:40:40.942Z,2.37
2018-07-16T20:43:08.735Z,6.37
2018-07-16T20:45:36.425Z,3.50
2018-07-16T20:48:04.041Z,4.03
2018-07-16T20:50:31.513Z,4.67
2018-07-16T20:52:59.295Z,2.55
2018-07-16T20:55:26.939Z,8.83
2018-07-16T20:57:54.673Z,7.10
2018-07-16T21:00:22.180Z,5.15
2018-07-16T21:02:50.140Z,4.05
2018-07-16T21:05:17.818Z,5.35
2018-07-16T21:07:46.001Z,3.90
2018-07-16T21:10:14.175Z,3.08
2018-07-16T21:12:41.825Z,4.97
2018-07-16T21:15:09.423Z,6.72
2018-07-16T21:17:36.884Z,5.72
2018-07-16T21:20:04.434Z,6.67
2018-07-16T21:22:31.874Z,4.65
2018-07-16T21:24:59.388Z,5.20
2018-07-16T21:27:26.882Z,2.90
2018-07-16T21:29:54.555Z,6.33
2018-07-16T21:32:23.254Z,3.85
2018-07-16T21:34:50.833Z,3.98
2018-07-16T21:37:18.267Z,3.70
2018-07-16T21:39:45.687Z,3.83
2018-07-16T21:42:13.158Z,3.02
2018-07-16T21:44:40.609Z,3.10
2018-07-16T21:47:08.103Z,3.00
2018-07-16T21:49:35.592Z,3.98
2018-07-16T21:52:03.186Z,3.10
2018-07-16T21:54:30.626Z,3.02
2018-07-16T21:56:58.137Z,3.22
2018-07-16T21:59:25.558Z,3.22
2018-07-16T22:12:54.370Z,3.72
2018-07-16T22:15:24.680Z,3.47
2018-07-16T22:17:53.246Z,3.12
2018-07-16T22:20:21.407Z,3.42
2018-07-16T22:22:48.806Z,3.37
2018-07-16T22:25:16.393Z,3.05
2018-07-16T22:27:44.073Z,3.10
2018-07-16T22:30:11.613Z,3.35
2018-07-16T22:32:39.043Z,3.33
2018-07-16T22:35:06.552Z,3.40
2018-07-16T22:37:34.014Z,3.98
2018-07-16T22:40:01.467Z,3.22
2018-07-16T22:42:28.913Z,3.00
2018-07-16T22:44:56.393Z,3.00
2018-07-16T22:47:23.826Z,3.37
2018-07-16T22:49:51.284Z,3.72
2018-07-16T22:52:20.102Z,5.22
2018-07-16T22:54:47.586Z,6.37
2018-07-16T22:57:15.022Z,3.37
2018-07-16T22:59:42.433Z,3.35
2018-07-16T23:02:09.874Z,4.30
2018-07-16T23:04:37.306Z,6.72
2018-07-16T23:07:04.814Z,4.97
2018-07-16T23:09:32.294Z,4.20
2018-07-16T23:11:59.705Z,3.50
2018-07-16T23:14:27.168Z,9.28
2018-07-16T23:16:54.609Z,3.83
2018-07-16T23:19:22.015Z,4.37
2018-07-16T23:21:49.434Z,5.67
2018-07-16T23:24:16.873Z,4.28
2018-07-16T23:26:44.276Z,7.15
2018-07-16T23:29:11.927Z,4.20
2018-07-16T23:31:39.210Z,3.37
2018-07-16T23:34:06.686Z,3.47
2018-07-16T23:36:34.127Z,3.00
2018-07-16T23:39:01.538Z,3.20
2018-07-16T23:41:28.954Z,2.90
2018-07-16T23:43:56.431Z,4.95
2018-07-16T23:46:23.845Z,3.75
2018-07-16T23:48:52.002Z,3.70
2018-07-16T23:51:19.498Z,3.15
2018-07-16T23:53:46.879Z,3.87
2018-07-16T23:56:14.357Z,3.15
2018-07-16T23:58:41.878Z,4.67
